createdAt,value
2023-07-04T00:00:08.332Z,39.91
2023-07-04T00:01:08.423Z,37.52
2023-07-04T00:02:08.443Z,42.33
2023-07-04T00:03:08.514Z,40.54
2023-07-04T00:04:08.467Z,42.42
2023-07-04T00:05:08.376Z,40.39
2023-07-04T00:06:08.405Z,39.97
2023-07-04T00:07:08.430Z,43.42
2023-07-04T00:08:08.412Z,38.84
2023-07-04T00:09:08.423Z,38.40
2023-07-04T00:10:08.425Z,37.60
2023-07-04T00:11:08.436Z,43.19
2023-07-04T00:12:08.442Z,40.53
2023-07-04T00:13:08.468Z,38.43
2023-07-04T00:14:08.601Z,38.61
2023-07-04T00:15:08.484Z,44.52
2023-07-04T00:16:08.578Z,43.35
2023-07-04T00:17:08.496Z,39.25
2023-07-04T00:18:08.505Z,41.90
2023-07-04T00:19:08.535Z,38.49
2023-07-04T00:20:08.534Z,43.44
2023-07-04T00:21:08.591Z,36.13
2023-07-04T00:22:08.564Z,41.09
2023-07-04T00:23:08.660Z,41.99
2023-07-04T00:24:08.591Z,41.00
2023-07-04T00:25:08.606Z,35.60
2023-07-04T00:26:08.629Z,41.66
2023-07-04T00:27:08.640Z,42.97
2023-07-04T00:28:08.642Z,41.23
2023-07-04T00:29:08.646Z,41.22
2023-07-04T00:30:08.666Z,41.24
2023-07-04T00:31:08.809Z,43.04
2023-07-04T00:32:08.700Z,42.81
2023-07-04T00:33:08.705Z,41.98
2023-07-04T00:34:08.717Z,44.82
2023-07-04T00:35:08.731Z,42.02
2023-07-04T00:36:08.819Z,38.25
2023-07-04T00:37:08.759Z,40.83
2023-07-04T00:38:08.774Z,39.84
2023-07-04T00:39:09.260Z,43.60
2023-07-04T00:40:08.800Z,41.84
2023-07-04T00:41:08.891Z,44.44
2023-07-04T00:42:08.822Z,39.33
2023-07-04T00:43:08.837Z,38.57
2023-07-04T00:44:08.876Z,39.20
2023-07-04T00:45:08.854Z,36.06
2023-07-04T00:46:08.878Z,41.78
2023-07-04T00:47:08.922Z,37.55
2023-07-04T00:48:08.982Z,36.56
2023-07-04T00:49:08.911Z,39.85
2023-07-04T00:50:08.952Z,37.67
2023-07-04T00:51:08.928Z,38.62
2023-07-04T00:52:08.938Z,43.20
2023-07-04T00:53:08.952Z,38.30
2023-07-04T00:54:08.964Z,37.10
2023-07-04T00:55:08.990Z,39.04
2023-07-04T00:56:08.986Z,38.00
2023-07-04T00:57:09.025Z,38.92
2023-07-04T00:58:09.095Z,40.50
2023-07-04T00:59:09.011Z,37.25
2023-07-04T01:00:09.019Z,39.14
2023-07-04T01:01:09.034Z,38.10
2023-07-04T01:02:09.093Z,40.48
2023-07-04T01:03:09.101Z,38.51
2023-07-04T01:04:09.065Z,35.27
2023-07-04T01:05:09.069Z,37.18
2023-07-04T01:06:09.074Z,37.08
2023-07-04T01:07:09.078Z,36.46
2023-07-04T01:08:09.087Z,34.23
2023-07-04T01:09:09.110Z,36.37
2023-07-04T01:10:09.115Z,35.49
2023-07-04T01:11:09.130Z,39.32
2023-07-04T01:12:09.132Z,38.73
2023-07-04T01:13:09.149Z,39.58
2023-07-04T01:14:09.174Z,34.99
2023-07-04T01:15:09.173Z,37.29
2023-07-04T01:16:09.247Z,36.20
2023-07-04T01:17:09.767Z,35.51
2023-07-04T01:18:09.251Z,36.39
2023-07-04T01:19:09.229Z,39.22
2023-07-04T01:20:09.286Z,36.79
2023-07-04T01:21:09.259Z,37.23
2023-07-04T01:22:09.283Z,36.85
2023-07-04T01:23:09.312Z,35.32
2023-07-04T01:24:09.321Z,39.06
2023-07-04T01:25:09.333Z,35.93
2023-07-04T01:26:09.340Z,38.82
2023-07-04T01:27:09.366Z,37.47
2023-07-04T01:28:09.426Z,34.74
2023-07-04T01:29:09.403Z,37.12
2023-07-04T01:30:13.489Z,35.99
2023-07-04T01:31:09.410Z,36.08
2023-07-04T01:32:09.445Z,36.38
2023-07-04T01:33:09.393Z,36.69
2023-07-04T01:34:09.400Z,35.36
2023-07-04T01:35:09.383Z,40.22
2023-07-04T01:36:09.375Z,36.48
2023-07-04T01:37:09.364Z,36.97
2023-07-04T01:38:09.360Z,38.26
2023-07-04T01:39:09.358Z,35.15
2023-07-04T01:40:09.360Z,39.01
2023-07-04T01:41:09.350Z,39.04
2023-07-04T01:42:09.344Z,34.71
2023-07-04T01:43:09.349Z,36.56
2023-07-04T01:44:09.331Z,36.29
2023-07-04T01:45:09.329Z,36.08
2023-07-04T01:46:09.361Z,35.12
2023-07-04T01:47:09.313Z,36.39
2023-07-04T01:48:09.310Z,35.90
2023-07-04T01:49:09.306Z,37.26
2023-07-04T01:50:09.306Z,33.38
2023-07-04T01:51:09.320Z,35.43
2023-07-04T01:52:09.277Z,37.02
2023-07-04T01:53:09.328Z,36.69
2023-07-04T01:54:09.288Z,33.98
2023-07-04T01:55:09.296Z,37.77
2023-07-04T01:56:09.869Z,39.51
2023-07-04T01:57:09.263Z,40.83
2023-07-04T01:58:09.240Z,36.91
2023-07-04T01:59:09.235Z,34.49
2023-07-04T02:00:09.228Z,35.46
2023-07-04T02:01:09.317Z,31.62
2023-07-04T02:02:09.243Z,36.32
2023-07-04T02:03:09.295Z,33.60
2023-07-04T02:04:09.211Z,34.16
2023-07-04T02:05:09.202Z,36.95
2023-07-04T02:06:09.188Z,35.85
2023-07-04T02:07:09.181Z,32.95
2023-07-04T02:08:09.175Z,34.50
2023-07-04T02:09:09.173Z,35.37
2023-07-04T02:10:09.179Z,39.00
2023-07-04T02:11:09.287Z,37.33
2023-07-04T02:12:09.211Z,36.42
2023-07-04T02:13:09.236Z,35.05
2023-07-04T02:14:09.250Z,36.69
2023-07-04T02:15:09.302Z,35.75
2023-07-04T02:16:09.836Z,34.56
2023-07-04T02:17:09.303Z,35.01
2023-07-04T02:18:09.308Z,34.16
2023-07-04T02:19:09.326Z,32.01
2023-07-04T02:20:10.381Z,34.94
2023-07-04T02:21:09.356Z,38.01
2023-07-04T02:22:09.372Z,34.35
2023-07-04T02:23:09.469Z,34.24
2023-07-04T02:24:09.423Z,35.15
2023-07-04T02:25:09.415Z,34.30
2023-07-04T02:26:09.482Z,37.00
2023-07-04T02:27:09.441Z,36.43
2023-07-04T02:28:09.465Z,33.51
2023-07-04T02:29:09.482Z,31.37
2023-07-04T02:30:09.501Z,35.05
2023-07-04T02:31:09.557Z,35.44
2023-07-04T02:32:09.531Z,35.48
2023-07-04T02:33:09.569Z,34.73
2023-07-04T02:34:09.642Z,33.97
2023-07-04T02:35:09.622Z,35.25
2023-07-04T02:36:09.633Z,35.38
2023-07-04T02:37:09.648Z,31.89
2023-07-04T02:38:09.674Z,35.52
2023-07-04T02:39:09.710Z,35.49
2023-07-04T02:40:09.703Z,34.59
2023-07-04T02:41:09.786Z,34.19
2023-07-04T02:42:09.745Z,34.44
2023-07-04T02:43:09.758Z,35.03
2023-07-04T02:44:09.778Z,31.65
2023-07-04T02:45:09.803Z,34.39
2023-07-04T02:46:09.818Z,29.51
2023-07-04T02:47:09.912Z,33.90
2023-07-04T02:48:09.856Z,37.95
2023-07-04T02:49:09.886Z,35.46
2023-07-04T02:50:09.890Z,31.73
2023-07-04T02:51:09.907Z,32.48
2023-07-04T02:52:09.942Z,31.31
2023-07-04T02:53:09.955Z,30.27
2023-07-04T02:54:10.014Z,35.54
2023-07-04T02:55:09.990Z,31.53
2023-07-04T02:56:10.005Z,30.16
2023-07-04T02:57:10.029Z,33.14
2023-07-04T02:58:10.059Z,32.52
2023-07-04T02:59:10.066Z,34.48
2023-07-04T03:00:10.092Z,29.95
2023-07-04T03:01:10.197Z,33.99
2023-07-04T03:02:10.268Z,34.31
2023-07-04T03:03:10.312Z,31.67
2023-07-04T03:04:10.361Z,30.77
2023-07-04T03:05:10.196Z,30.99
2023-07-04T03:06:10.229Z,32.07
2023-07-04T03:07:10.248Z,29.69
2023-07-04T03:08:10.270Z,32.94
2023-07-04T03:09:10.366Z,34.06
2023-07-04T03:10:10.303Z,31.91
2023-07-04T03:11:10.317Z,32.58
2023-07-04T03:12:10.397Z,31.21
2023-07-04T03:13:10.372Z,34.51
2023-07-04T03:14:10.398Z,33.70
2023-07-04T03:15:10.424Z,31.06
2023-07-04T03:16:10.450Z,31.86
2023-07-04T03:17:10.519Z,31.57
2023-07-04T03:18:10.530Z,32.27
2023-07-04T03:19:10.504Z,33.48
2023-07-04T03:20:10.531Z,33.10
2023-07-04T03:21:10.559Z,33.30
2023-07-04T03:22:10.570Z,31.04
2023-07-04T03:23:10.597Z,27.25
2023-07-04T03:24:10.614Z,29.34
2023-07-04T03:25:10.632Z,30.78
2023-07-04T03:26:10.655Z,32.14
2023-07-04T03:27:10.672Z,28.68
2023-07-04T03:28:10.715Z,34.80
2023-07-04T03:29:10.743Z,29.03
2023-07-04T03:30:10.846Z,30.21
2023-07-04T03:31:10.788Z,30.86
2023-07-04T03:32:10.790Z,30.21
2023-07-04T03:33:10.821Z,32.21
2023-07-04T03:34:10.830Z,29.92
2023-07-04T03:35:10.891Z,30.30
2023-07-04T03:36:10.877Z,29.55
2023-07-04T03:37:10.909Z,29.91
2023-07-04T03:38:10.924Z,31.02
2023-07-04T03:39:10.949Z,30.33
2023-07-04T03:40:10.958Z,29.76
2023-07-04T03:41:10.980Z,31.13
2023-07-04T03:42:10.997Z,27.82
2023-07-04T03:43:11.045Z,30.43
2023-07-04T03:44:11.048Z,28.36
2023-07-04T03:45:11.061Z,28.35
2023-07-04T03:46:11.104Z,29.61
2023-07-04T03:47:11.122Z,27.20
2023-07-04T03:48:11.192Z,30.82
2023-07-04T03:49:11.171Z,30.50
2023-07-04T03:50:11.201Z,30.48
2023-07-04T03:51:11.213Z,29.69
2023-07-04T03:52:11.238Z,29.82
2023-07-04T03:53:11.261Z,28.31
2023-07-04T03:54:11.297Z,29.34
2023-07-04T03:55:11.306Z,28.91
2023-07-04T03:56:11.324Z,27.53
2023-07-04T03:57:11.360Z,29.55
2023-07-04T03:58:11.390Z,29.79
2023-07-04T03:59:11.483Z,29.26
2023-07-04T04:00:11.434Z,31.99
2023-07-04T04:01:11.464Z,31.62
2023-07-04T04:02:11.486Z,31.39
2023-07-04T04:03:11.697Z,31.06
2023-07-04T04:04:11.655Z,31.24
2023-07-04T04:05:11.573Z,25.33
2023-07-04T04:06:11.617Z,27.94
2023-07-04T04:07:11.629Z,28.49
2023-07-04T04:08:12.349Z,28.17
2023-07-04T04:09:11.694Z,29.84
2023-07-04T04:10:11.715Z,29.70
2023-07-04T04:11:11.718Z,30.28
2023-07-04T04:12:11.742Z,31.69
2023-07-04T04:13:11.830Z,28.73
2023-07-04T04:14:11.797Z,26.23
2023-07-04T04:15:11.822Z,30.90
2023-07-04T04:16:11.887Z,26.97
2023-07-04T04:17:11.941Z,28.47
2023-07-04T04:18:11.882Z,30.29
2023-07-04T04:19:11.906Z,29.59
2023-07-04T04:20:13.620Z,30.65
2023-07-04T04:21:12.855Z,29.60
2023-07-04T04:22:11.970Z,31.00
2023-07-04T04:23:11.989Z,31.57
2023-07-04T04:24:12.013Z,27.24
2023-07-04T04:25:12.098Z,29.82
2023-07-04T04:26:12.064Z,29.85
2023-07-04T04:27:12.074Z,29.47
2023-07-04T04:28:12.100Z,30.47
2023-07-04T04:29:12.132Z,27.51
2023-07-04T04:30:12.382Z,31.87
2023-07-04T04:31:12.165Z,30.13
2023-07-04T04:32:12.183Z,29.73
2023-07-04T04:33:12.218Z,29.55
2023-07-04T04:34:12.234Z,28.84
2023-07-04T04:35:12.265Z,28.74
2023-07-04T04:36:12.290Z,30.37
2023-07-04T04:37:12.319Z,28.73
2023-07-04T04:38:13.837Z,27.80
2023-07-04T04:39:12.325Z,30.31
2023-07-04T04:40:12.361Z,27.60
2023-07-04T04:41:12.302Z,30.51
2023-07-04T04:42:12.299Z,29.88
2023-07-04T04:43:12.292Z,28.95
2023-07-04T04:44:12.280Z,30.10
2023-07-04T04:45:12.287Z,28.77
2023-07-04T04:46:12.427Z,26.64
2023-07-04T04:47:12.264Z,28.40
2023-07-04T04:48:12.259Z,30.31
2023-07-04T04:49:12.264Z,29.70
2023-07-04T04:50:12.266Z,29.46
2023-07-04T04:51:12.366Z,29.14
2023-07-04T04:52:12.242Z,28.67
2023-07-04T04:53:12.227Z,28.84
2023-07-04T04:54:12.212Z,27.82
2023-07-04T04:55:12.208Z,29.33
2023-07-04T04:56:12.245Z,29.31
2023-07-04T04:57:12.270Z,30.31
2023-07-04T04:58:12.195Z,29.10
2023-07-04T04:59:12.239Z,29.03
2023-07-04T05:00:12.178Z,31.43
2023-07-04T05:01:12.218Z,30.38
2023-07-04T05:02:12.159Z,29.24
2023-07-04T05:03:12.157Z,27.88
2023-07-04T05:04:12.319Z,26.89
2023-07-04T05:05:12.141Z,26.05
2023-07-04T05:06:12.143Z,29.78
2023-07-04T05:07:12.128Z,28.02
2023-07-04T05:08:12.120Z,29.99
2023-07-04T05:09:12.125Z,29.59
2023-07-04T05:10:12.103Z,29.67
2023-07-04T05:11:12.100Z,31.37
2023-07-04T05:12:12.162Z,30.42
2023-07-04T05:13:12.122Z,27.90
2023-07-04T05:14:12.083Z,30.11
2023-07-04T05:15:12.082Z,30.31
2023-07-04T05:16:12.085Z,25.71
2023-07-04T05:17:12.061Z,30.53
2023-07-04T05:18:12.049Z,29.55
2023-07-04T05:19:12.107Z,28.97
2023-07-04T05:20:12.045Z,30.71
2023-07-04T05:21:12.027Z,31.36
2023-07-04T05:22:12.029Z,30.40
2023-07-04T05:23:12.029Z,29.27
2023-07-04T05:24:12.015Z,30.93
2023-07-04T05:25:12.045Z,27.12
2023-07-04T05:26:11.997Z,29.59
2023-07-04T05:27:12.001Z,29.54
2023-07-04T05:28:12.875Z,32.36
2023-07-04T05:29:11.981Z,30.09
2023-07-04T05:30:11.979Z,28.70
2023-07-04T05:31:13.738Z,29.32
2023-07-04T05:32:12.034Z,30.34
2023-07-04T05:33:12.035Z,31.35
2023-07-04T05:34:11.961Z,30.76
2023-07-04T05:35:11.966Z,30.32
2023-07-04T05:36:11.946Z,30.95
2023-07-04T05:37:13.003Z,26.78
2023-07-04T05:38:11.924Z,32.19
2023-07-04T05:39:11.922Z,33.89
2023-07-04T05:40:11.931Z,30.93
2023-07-04T05:41:11.905Z,33.86
2023-07-04T05:42:11.917Z,30.64
2023-07-04T05:43:11.906Z,29.89
2023-07-04T05:44:11.901Z,29.71
2023-07-04T05:45:11.909Z,31.48
2023-07-04T05:46:11.939Z,28.30
2023-07-04T05:47:11.870Z,28.49
2023-07-04T05:48:11.866Z,31.43
2023-07-04T05:49:11.845Z,28.59
2023-07-04T05:50:11.841Z,29.61
2023-07-04T05:51:11.835Z,28.87
2023-07-04T05:52:11.840Z,31.38
2023-07-04T05:53:11.828Z,30.08
2023-07-04T05:54:11.819Z,28.20
2023-07-04T05:55:11.817Z,31.83
2023-07-04T05:56:11.818Z,30.45
2023-07-04T05:57:11.807Z,30.16
2023-07-04T05:58:11.797Z,33.23
2023-07-04T05:59:11.788Z,29.28
2023-07-04T06:00:11.781Z,27.53
2023-07-04T06:01:11.763Z,29.45
2023-07-04T06:02:11.766Z,29.90
2023-07-04T06:03:11.807Z,27.70
2023-07-04T06:04:12.018Z,29.02
2023-07-04T06:05:11.783Z,32.82
2023-07-04T06:06:11.776Z,25.50
2023-07-04T06:07:11.737Z,28.46
2023-07-04T06:08:11.726Z,27.46
2023-07-04T06:09:11.746Z,28.58
2023-07-04T06:10:11.733Z,26.33
2023-07-04T06:11:11.724Z,28.28
2023-07-04T06:12:11.715Z,28.04
2023-07-04T06:13:11.796Z,26.09
2023-07-04T06:14:11.726Z,27.28
2023-07-04T06:15:11.690Z,26.07
2023-07-04T06:16:12.451Z,29.04
2023-07-04T06:17:11.703Z,29.15
2023-07-04T06:18:11.727Z,25.00
2023-07-04T06:19:11.732Z,26.70
2023-07-04T06:20:11.688Z,29.16
2023-07-04T06:21:12.413Z,31.22
2023-07-04T06:22:11.640Z,31.48
2023-07-04T06:23:11.635Z,26.88
2023-07-04T06:24:11.642Z,25.72
2023-07-04T06:25:12.427Z,30.75
2023-07-04T06:26:11.657Z,27.91
2023-07-04T06:27:11.659Z,28.95
2023-07-04T06:28:11.724Z,32.98
2023-07-04T06:29:11.729Z,27.51
2023-07-04T06:30:11.766Z,27.28
2023-07-04T06:31:11.772Z,33.37
2023-07-04T06:32:11.744Z,30.41
2023-07-04T06:33:11.767Z,28.29
2023-07-04T06:34:11.787Z,28.22
2023-07-04T06:35:11.806Z,28.55
2023-07-04T06:36:12.035Z,31.84
2023-07-04T06:37:11.838Z,33.36
2023-07-04T06:38:11.847Z,33.39
2023-07-04T06:39:11.865Z,32.99
2023-07-04T06:40:11.903Z,31.69
2023-07-04T06:41:11.884Z,28.98
2023-07-04T06:42:11.887Z,31.30
2023-07-04T06:43:11.897Z,28.79
2023-07-04T06:44:11.911Z,33.55
2023-07-04T06:45:11.948Z,31.29
2023-07-04T06:46:11.928Z,28.64
2023-07-04T06:47:11.995Z,31.83
2023-07-04T06:48:11.991Z,29.09
2023-07-04T06:49:11.982Z,34.71
2023-07-04T06:50:11.990Z,28.18
2023-07-04T06:51:11.989Z,28.92
2023-07-04T06:52:12.020Z,29.72
2023-07-04T06:53:12.434Z,34.61
2023-07-04T06:54:12.029Z,32.79
2023-07-04T06:55:12.738Z,32.30
2023-07-04T06:56:13.113Z,34.69
2023-07-04T06:57:12.305Z,36.22
2023-07-04T06:58:12.056Z,32.15
2023-07-04T06:59:12.065Z,32.94
2023-07-04T07:00:12.771Z,33.65
2023-07-04T07:01:12.135Z,30.64
2023-07-04T07:02:12.090Z,33.30
2023-07-04T07:03:12.192Z,34.29
2023-07-04T07:04:12.142Z,33.67
2023-07-04T07:05:12.876Z,33.39
2023-07-04T07:06:12.156Z,30.39
2023-07-04T07:07:12.165Z,33.01
2023-07-04T07:08:12.181Z,35.79
2023-07-04T07:09:12.157Z,32.25
2023-07-04T07:10:12.251Z,32.45
2023-07-04T07:11:12.186Z,31.99
2023-07-04T07:12:12.207Z,32.28
2023-07-04T07:13:12.227Z,34.62
2023-07-04T07:14:12.205Z,33.91
2023-07-04T07:15:12.229Z,34.92
2023-07-04T07:16:12.239Z,34.58
2023-07-04T07:17:12.294Z,38.36
2023-07-04T07:18:12.283Z,34.46
2023-07-04T07:19:14.577Z,33.67
2023-07-04T07:20:12.271Z,33.81
2023-07-04T07:21:12.272Z,34.44
2023-07-04T07:22:12.258Z,34.70
2023-07-04T07:23:14.936Z,36.97
2023-07-04T07:24:12.314Z,33.88
2023-07-04T07:25:12.246Z,35.10
2023-07-04T07:26:12.940Z,35.78
2023-07-04T07:27:12.218Z,39.73
2023-07-04T07:28:12.542Z,39.16
2023-07-04T07:29:12.221Z,39.49
2023-07-04T07:30:12.195Z,36.80
2023-07-04T07:31:12.264Z,42.84
2023-07-04T07:32:12.185Z,43.21
2023-07-04T07:33:12.234Z,37.99
2023-07-04T07:34:12.657Z,43.36
2023-07-04T07:35:12.162Z,40.11
2023-07-04T07:36:12.165Z,40.59
2023-07-04T07:37:12.148Z,42.12
2023-07-04T07:38:12.140Z,37.71
2023-07-04T07:39:12.195Z,38.38
2023-07-04T07:40:12.133Z,42.59
2023-07-04T07:41:12.132Z,39.02
2023-07-04T07:42:12.113Z,40.30
2023-07-04T07:43:12.107Z,42.16
2023-07-04T07:44:12.112Z,43.07
2023-07-04T07:45:12.112Z,41.42
2023-07-04T07:46:12.110Z,41.28
2023-07-04T07:47:12.091Z,42.75
2023-07-04T07:48:12.105Z,41.95
2023-07-04T07:49:12.073Z,43.71
2023-07-04T07:50:12.060Z,44.53
2023-07-04T07:51:12.163Z,42.34
2023-07-04T07:52:12.062Z,41.02
2023-07-04T07:53:12.048Z,39.80
2023-07-04T07:54:12.232Z,43.15
2023-07-04T07:55:12.029Z,40.81
2023-07-04T07:56:12.040Z,39.85
2023-07-04T07:57:12.945Z,44.08
2023-07-04T07:58:12.015Z,40.81
2023-07-04T07:59:12.010Z,40.88
2023-07-04T08:00:12.015Z,44.78
2023-07-04T08:01:12.013Z,44.41
2023-07-04T08:02:11.998Z,44.10
2023-07-04T08:03:12.252Z,42.39
2023-07-04T08:04:15.524Z,42.35
2023-07-04T08:05:12.015Z,42.50
2023-07-04T08:06:11.985Z,42.79
2023-07-04T08:07:12.020Z,43.20
2023-07-04T08:08:12.023Z,43.44
2023-07-04T08:09:11.968Z,46.47
2023-07-04T08:10:11.999Z,44.27
2023-07-04T08:11:11.965Z,43.15
2023-07-04T08:12:11.933Z,43.09
2023-07-04T08:13:12.023Z,44.77
2023-07-04T08:14:11.921Z,44.79
2023-07-04T08:15:11.954Z,45.97
2023-07-04T08:16:12.011Z,44.78
2023-07-04T08:17:11.906Z,45.61
2023-07-04T08:18:11.902Z,44.53
2023-07-04T08:19:11.925Z,44.85
2023-07-04T08:20:11.984Z,48.32
2023-07-04T08:21:11.872Z,49.92
2023-07-04T08:22:11.886Z,48.02
2023-07-04T08:23:11.907Z,46.16
2023-07-04T08:24:11.965Z,44.66
2023-07-04T08:25:11.898Z,43.37
2023-07-04T08:26:11.854Z,49.35
2023-07-04T08:27:11.843Z,45.68
2023-07-04T08:28:12.502Z,45.83
2023-07-04T08:29:11.960Z,45.85
2023-07-04T08:30:11.892Z,44.67
2023-07-04T08:31:11.920Z,44.20
2023-07-04T08:32:12.081Z,44.74
2023-07-04T08:33:11.907Z,42.86
2023-07-04T08:34:12.007Z,44.67
2023-07-04T08:35:11.925Z,48.02
2023-07-04T08:36:12.465Z,45.60
2023-07-04T08:37:11.766Z,47.57
2023-07-04T08:38:11.763Z,44.85
2023-07-04T08:39:11.756Z,45.47
2023-07-04T08:40:11.756Z,48.27
2023-07-04T08:41:11.795Z,50.09
2023-07-04T08:42:11.733Z,43.08
2023-07-04T08:43:11.720Z,49.94
2023-07-04T08:44:11.732Z,48.53
2023-07-04T08:45:11.710Z,45.31
2023-07-04T08:46:11.757Z,47.35
2023-07-04T08:47:11.705Z,46.66
2023-07-04T08:48:11.692Z,47.23
2023-07-04T08:49:11.684Z,48.98
2023-07-04T08:50:11.692Z,47.79
2023-07-04T08:51:11.672Z,44.11
2023-07-04T08:52:11.687Z,48.13
2023-07-04T08:53:11.655Z,49.89
2023-07-04T08:54:11.672Z,53.37
2023-07-04T08:55:11.664Z,45.58
2023-07-04T08:56:11.642Z,48.88
2023-07-04T08:57:11.632Z,48.44
2023-07-04T08:58:11.628Z,47.51
2023-07-04T08:59:11.650Z,47.68
2023-07-04T09:00:11.634Z,47.10
2023-07-04T09:01:11.637Z,47.08
2023-07-04T09:02:11.618Z,48.66
2023-07-04T09:03:11.656Z,47.65
2023-07-04T09:04:11.605Z,48.89
2023-07-04T09:05:11.651Z,50.06
2023-07-04T09:06:11.593Z,48.17
2023-07-04T09:07:11.568Z,49.61
2023-07-04T09:08:11.576Z,47.18
2023-07-04T09:09:11.563Z,48.74
2023-07-04T09:10:11.622Z,47.13
2023-07-04T09:11:11.538Z,49.42
2023-07-04T09:12:11.532Z,49.73
2023-07-04T09:13:11.672Z,48.84
2023-07-04T09:14:11.528Z,51.13
2023-07-04T09:15:11.514Z,48.68
2023-07-04T09:16:11.533Z,49.18
2023-07-04T09:17:11.557Z,47.32
2023-07-04T09:18:22.400Z,46.70
2023-07-04T09:19:12.506Z,47.05
2023-07-04T09:20:11.481Z,47.33
2023-07-04T09:21:11.485Z,49.18
2023-07-04T09:22:11.554Z,50.89
2023-07-04T09:23:11.455Z,50.53
2023-07-04T09:24:11.450Z,50.07
2023-07-04T09:25:11.444Z,52.93
2023-07-04T09:26:11.446Z,50.29
2023-07-04T09:27:11.485Z,50.19
2023-07-04T09:28:11.438Z,55.84
2023-07-04T09:29:11.448Z,55.43
2023-07-04T09:30:11.413Z,49.79
2023-07-04T09:31:11.583Z,51.69
2023-07-04T09:32:11.396Z,52.54
2023-07-04T09:33:11.402Z,49.96
2023-07-04T09:34:11.436Z,53.68
2023-07-04T09:35:11.389Z,52.86
2023-07-04T09:36:11.376Z,50.30
2023-07-04T09:37:11.366Z,54.41
2023-07-04T09:38:11.365Z,51.64
2023-07-04T09:39:11.371Z,50.83
2023-07-04T09:40:11.416Z,54.80
2023-07-04T09:41:11.394Z,52.28
2023-07-04T09:42:23.182Z,51.11
2023-07-04T09:43:12.450Z,51.32
2023-07-04T09:44:11.317Z,51.91
2023-07-04T09:45:11.316Z,52.94
2023-07-04T09:46:11.368Z,56.40
2023-07-04T09:47:11.297Z,59.81
2023-07-04T09:48:11.288Z,56.73
2023-07-04T09:49:11.279Z,54.64
2023-07-04T09:50:11.512Z,56.79
2023-07-04T09:51:11.269Z,58.98
2023-07-04T09:52:11.265Z,58.22
2023-07-04T09:53:11.514Z,56.30
2023-07-04T09:54:11.246Z,57.57
2023-07-04T09:55:11.261Z,59.78
2023-07-04T09:56:11.235Z,55.10
2023-07-04T09:57:11.232Z,59.00
2023-07-04T09:58:11.219Z,58.24
2023-07-04T09:59:11.237Z,56.66
2023-07-04T10:00:11.206Z,61.08
2023-07-04T10:01:12.021Z,57.73
2023-07-04T10:02:11.267Z,60.59
2023-07-04T10:03:11.305Z,59.35
2023-07-04T10:04:11.225Z,57.86
2023-07-04T10:05:11.226Z,59.17
2023-07-04T10:06:11.217Z,61.81
2023-07-04T10:07:11.236Z,59.00
2023-07-04T10:08:11.236Z,66.21
2023-07-04T10:09:18.637Z,59.83
2023-07-04T10:10:12.236Z,59.94
2023-07-04T10:11:11.239Z,60.69
2023-07-04T10:12:11.219Z,60.49
2023-07-04T10:13:11.196Z,60.15
2023-07-04T10:14:11.193Z,60.21
2023-07-04T10:15:11.185Z,62.96
2023-07-04T10:16:11.179Z,64.76
2023-07-04T10:17:11.211Z,62.18
2023-07-04T10:18:11.219Z,61.47
2023-07-04T10:19:11.160Z,60.43
2023-07-04T10:20:12.100Z,61.30
2023-07-04T10:21:11.148Z,60.97
2023-07-04T10:22:11.140Z,60.94
2023-07-04T10:23:11.140Z,62.70
2023-07-04T10:24:11.121Z,65.75
2023-07-04T10:25:11.124Z,63.48
2023-07-04T10:26:11.162Z,61.76
2023-07-04T10:27:11.103Z,64.24
2023-07-04T10:28:11.098Z,61.09
2023-07-04T10:29:11.513Z,67.18
2023-07-04T10:30:11.099Z,63.38
2023-07-04T10:31:12.093Z,63.41
2023-07-04T10:32:11.084Z,65.41
2023-07-04T10:33:11.082Z,62.77
2023-07-04T10:34:11.066Z,62.93
2023-07-04T10:35:11.062Z,61.32
2023-07-04T10:36:11.125Z,63.24
2023-07-04T10:37:11.048Z,62.64
2023-07-04T10:38:11.041Z,61.64
2023-07-04T10:39:11.032Z,63.06
2023-07-04T10:40:11.029Z,61.16
2023-07-04T10:41:11.011Z,63.29
2023-07-04T10:42:10.997Z,60.82
2023-07-04T10:43:11.003Z,64.13
2023-07-04T10:44:10.995Z,66.74
2023-07-04T10:45:10.979Z,61.92
2023-07-04T10:46:11.547Z,64.00
2023-07-04T10:47:10.969Z,64.36
2023-07-04T10:48:11.037Z,65.61
2023-07-04T10:49:10.974Z,62.57
2023-07-04T10:50:10.970Z,63.12
2023-07-04T10:51:10.977Z,63.19
2023-07-04T10:52:10.965Z,63.94
2023-07-04T10:53:13.089Z,64.20
2023-07-04T10:54:10.993Z,65.98
2023-07-04T10:55:10.985Z,63.93
2023-07-04T10:56:10.952Z,63.86
2023-07-04T10:57:10.953Z,63.28
2023-07-04T10:58:10.955Z,62.14
2023-07-04T10:59:10.943Z,64.78
2023-07-04T11:00:10.941Z,64.03
2023-07-04T11:01:10.976Z,64.41
2023-07-04T11:02:10.915Z,65.75
2023-07-04T11:03:11.065Z,66.01
2023-07-04T11:04:10.904Z,62.58
2023-07-04T11:05:10.912Z,63.43
2023-07-04T11:06:10.890Z,63.86
2023-07-04T11:07:10.890Z,63.87
2023-07-04T11:08:10.891Z,61.43
2023-07-04T11:09:10.876Z,61.90
2023-07-04T11:10:10.873Z,62.93
2023-07-04T11:11:13.348Z,60.01
2023-07-04T11:12:10.857Z,60.14
2023-07-04T11:13:10.849Z,60.41
2023-07-04T11:14:10.852Z,61.22
2023-07-04T11:15:10.837Z,59.43
2023-07-04T11:16:10.905Z,60.34
2023-07-04T11:17:10.855Z,60.58
2023-07-04T11:18:10.875Z,61.66
2023-07-04T11:19:10.812Z,55.59
2023-07-04T11:20:10.803Z,54.48
2023-07-04T11:21:10.794Z,47.69
2023-07-04T11:22:11.429Z,48.29
2023-07-04T11:23:10.790Z,51.39
2023-07-04T11:24:10.817Z,50.69
2023-07-04T11:25:10.773Z,48.80
2023-07-04T11:26:10.758Z,51.80
2023-07-04T11:27:10.768Z,49.13
2023-07-04T11:28:10.752Z,51.23
2023-07-04T11:29:10.798Z,47.52
2023-07-04T11:30:10.753Z,44.06
2023-07-04T11:31:10.790Z,38.16
2023-07-04T11:32:10.732Z,36.99
2023-07-04T11:33:10.776Z,40.40
2023-07-04T11:34:10.725Z,29.90
2023-07-04T11:35:10.707Z,26.51
2023-07-04T11:36:10.708Z,27.79
2023-07-04T11:37:10.704Z,41.52
2023-07-04T11:38:10.697Z,60.70
2023-07-04T11:39:10.686Z,59.55
2023-07-04T11:40:10.696Z,54.29
2023-07-04T11:41:10.671Z,41.02
2023-07-04T11:42:10.665Z,47.89
2023-07-04T11:43:10.653Z,42.68
2023-07-04T11:44:11.560Z,34.94
2023-07-04T11:45:10.659Z,26.83
2023-07-04T11:46:10.681Z,26.70
2023-07-04T11:47:10.669Z,31.72
2023-07-04T11:48:10.747Z,25.00
2023-07-04T11:49:10.741Z,25.00
2023-07-04T11:50:10.789Z,28.41
2023-07-04T11:51:10.830Z,30.05
2023-07-04T11:52:10.877Z,25.57
2023-07-04T11:53:10.925Z,27.83
2023-07-04T11:54:11.572Z,26.53
2023-07-04T11:55:11.002Z,25.00
2023-07-04T11:56:11.045Z,26.93
2023-07-04T11:57:16.131Z,26.28
2023-07-04T11:58:12.080Z,26.50
2023-07-04T11:59:11.074Z,26.93
2023-07-04T12:00:11.076Z,27.97
2023-07-04T12:01:11.081Z,29.72
2023-07-04T12:02:11.082Z,28.85
2023-07-04T12:03:11.126Z,29.60
2023-07-04T12:04:13.088Z,28.66
2023-07-04T12:05:11.043Z,29.81
2023-07-04T12:06:11.024Z,28.77
2023-07-04T12:07:11.011Z,26.85
2023-07-04T12:08:11.011Z,27.32
2023-07-04T12:09:10.996Z,28.08
2023-07-04T12:10:11.023Z,27.51
2023-07-04T12:11:11.006Z,29.67
2023-07-04T12:12:11.033Z,32.74
2023-07-04T12:13:10.986Z,32.26
2023-07-04T12:14:10.988Z,31.96
2023-07-04T12:15:10.980Z,32.88
2023-07-04T12:16:11.017Z,29.17
2023-07-04T12:17:10.951Z,31.47
2023-07-04T12:18:10.987Z,31.03
2023-07-04T12:19:10.971Z,29.89
2023-07-04T12:20:10.948Z,32.12
2023-07-04T12:21:10.942Z,28.46
2023-07-04T12:22:10.920Z,28.70
2023-07-04T12:23:10.915Z,26.24
2023-07-04T12:24:10.906Z,28.48
2023-07-04T12:25:10.928Z,29.24
2023-07-04T12:26:10.905Z,27.37
2023-07-04T12:27:10.901Z,28.20
2023-07-04T12:28:10.883Z,30.02
2023-07-04T12:30:11.909Z,29.06
2023-07-04T12:32:10.847Z,29.53
2023-07-04T12:33:10.866Z,31.06
2023-07-04T12:34:10.912Z,29.61
2023-07-04T12:35:11.984Z,28.77
2023-07-04T12:36:10.832Z,26.24
2023-07-04T12:37:10.821Z,28.45
2023-07-04T12:38:10.828Z,27.08
2023-07-04T12:39:10.807Z,23.77
2023-07-04T12:40:10.792Z,26.79
2023-07-04T12:41:10.811Z,29.04
2023-07-04T12:42:10.786Z,30.22
2023-07-04T12:45:10.766Z,27.31
2023-07-04T12:50:10.894Z,27.57
2023-07-04T12:51:10.846Z,27.43
2023-07-04T12:52:10.723Z,24.15
2023-07-04T12:53:10.705Z,18.00
2023-07-04T12:54:10.699Z,8.63
2023-07-04T12:55:10.692Z,25.00
2023-07-04T12:56:10.674Z,27.37
2023-07-04T12:57:10.692Z,25.05
2023-07-04T12:58:10.671Z,25.29
2023-07-04T12:59:10.731Z,26.18
2023-07-04T13:00:10.863Z,31.12